Time;durP1;ratioP1;P1;durP2;ratioP2;P2;SDS_P1;SDS_P2;PMS_P1;PMS_P2;Temp;Humidity;BMP_temperature;BMP_pressure;BME280_temperature;BME280_humidity;BME280_pressure;Samples;Min_cycle;Max_cycle;Signal;HPM_P1;HPM_P2
2022/05/09 00:01:26;;;;;;;6.17;2.13;;;7.80;99.90;;;;;;21217091;27;20043;-51
2022/05/09 00:11:28;;;;;;;3.25;2.40;;;7.80;99.90;;;;;;21153598;27;20032;-47
2022/05/09 00:21:35;;;;;;;3.45;2.70;;;8.00;99.90;;;;;;21130739;28;20480;-58
2022/05/09 00:31:40;;;;;;;5.05;2.47;;;8.20;99.90;;;;;;21129772;28;20032;-47
2022/05/09 00:41:47;;;;;;;7.45;2.28;;;8.40;99.90;;;;;;21129315;28;20096;-50
2022/05/09 00:52:14;;;;;;;4.80;2.53;;;8.50;99.90;;;;;;21128882;28;20484;-58
2022/05/09 01:02:19;;;;;;;4.07;2.53;;;8.60;99.90;;;;;;21127137;28;20127;-51
2022/05/09 01:12:30;;;;;;;5.38;2.97;;;8.60;99.90;;;;;;21127608;28;20035;-49
2022/05/09 01:22:35;;;;;;;4.50;2.85;;;8.80;99.90;;;;;;21136703;28;20027;-50
2022/05/09 01:32:41;;;;;;;5.22;3.00;;;9.10;99.90;;;;;;21211541;28;20438;-58
2022/05/09 01:42:44;;;;;;;8.13;3.03;;;9.30;99.90;;;;;;21147236;28;20108;-50
2022/05/09 01:52:46;;;;;;;4.45;2.78;;;9.40;99.90;;;;;;21126660;28;20131;-58
2022/05/09 02:02:49;;;;;;;6.00;3.47;;;9.40;99.90;;;;;;21126728;28;20035;-48
2022/05/09 02:12:51;;;;;;;4.50;3.05;;;9.30;99.90;;;;;;21121320;28;20148;-58
2022/05/09 02:22:54;;;;;;;6.35;3.38;;;9.30;99.90;;;;;;21140523;27;20043;-49
2022/05/09 02:32:57;;;;;;;5.07;3.40;;;9.30;99.90;;;;;;21135770;28;20559;-58
2022/05/09 02:43:03;;;;;;;5.63;3.30;;;9.40;99.90;;;;;;21139633;28;20134;-48
2022/05/09 02:53:08;;;;;;;4.18;3.00;;;9.50;99.90;;;;;;21137916;28;20419;-49
2022/05/09 03:13:31;;;;;;;4.80;3.33;;;9.50;99.90;;;;;;21168703;27;20031;-58
2022/05/09 03:23:34;;;;;;;5.95;3.63;;;9.10;99.90;;;;;;21219677;27;20076;-57
2022/05/09 03:33:39;;;;;;;4.40;3.20;;;8.90;99.90;;;;;;21219839;27;20035;-58
2022/05/09 03:43:42;;;;;;;5.50;3.28;;;8.70;99.90;;;;;;21146367;28;20040;-57
2022/05/09 03:53:44;;;;;;;4.38;3.42;;;8.70;99.90;;;;;;21133373;28;20035;-57
2022/05/09 04:03:46;;;;;;;4.82;2.83;;;8.60;99.90;;;;;;21132209;28;20450;-58
2022/05/09 04:13:49;;;;;;;5.05;2.20;;;8.60;99.90;;;;;;21174793;27;20064;-51
2022/05/09 04:23:58;;;;;;;3.70;2.42;;;8.70;99.90;;;;;;21215533;27;20441;-49
2022/05/09 04:34:01;;;;;;;3.22;2.05;;;9.10;99.90;;;;;;21148704;27;20031;-47
2022/05/09 04:44:05;;;;;;;4.65;2.47;;;9.20;99.90;;;;;;21129140;28;20056;-57
2022/05/09 04:54:07;;;;;;;3.33;2.33;;;9.10;99.90;;;;;;21128728;28;20135;-54
2022/05/09 05:04:10;;;;;;;5.65;2.65;;;9.20;99.90;;;;;;21129366;28;20039;-59
2022/05/09 05:14:12;;;;;;;5.65;2.30;;;9.60;99.90;;;;;;21128261;28;20096;-58
2022/05/09 05:24:15;;;;;;;5.35;2.72;;;9.70;99.90;;;;;;21127389;28;20065;-58
2022/05/09 05:34:18;;;;;;;5.57;2.47;;;9.80;99.90;;;;;;21126969;28;20036;-50
2022/05/09 05:44:21;;;;;;;3.85;2.35;;;10.10;99.90;;;;;;21134942;28;20043;-58
2022/05/09 05:54:23;;;;;;;4.53;2.63;;;10.10;99.90;;;;;;21143394;28;20039;-58
2022/05/09 06:04:26;;;;;;;4.05;2.30;;;10.30;99.90;;;;;;21142096;28;20124;-52
2022/05/09 06:14:31;;;;;;;2.83;2.00;;;10.90;99.90;;;;;;21142203;28;20133;-59
2022/05/09 06:24:33;;;;;;;3.83;1.80;;;11.30;99.90;;;;;;21140331;28;20084;-48
2022/05/09 06:34:36;;;;;;;3.88;2.70;;;14.70;99.90;;;;;;21139759;28;20432;-59
2022/05/09 06:44:39;;;;;;;4.50;2.13;;;16.90;99.90;;;;;;21138717;28;20175;-59
2022/05/09 06:54:41;;;;;;;1.65;1.52;;;17.90;97.80;;;;;;21136674;28;20096;-52
2022/05/09 07:04:44;;;;;;;3.10;2.00;;;18.80;94.20;;;;;;21137172;28;20031;-54
2022/05/09 07:14:46;;;;;;;3.45;2.08;;;18.80;93.50;;;;;;21136892;28;20038;-61
2022/05/09 07:24:49;;;;;;;4.32;2.13;;;19.30;92.50;;;;;;21132642;28;20040;-61
2022/05/09 07:34:52;;;;;;;6.47;2.22;;;19.80;94.70;;;;;;21134807;28;20035;-61
2022/05/09 07:44:56;;;;;;;5.53;2.53;;;19.80;92.20;;;;;;21133372;28;20092;-62
2022/05/09 07:54:59;;;;;;;4.93;2.17;;;20.30;95.30;;;;;;21133048;28;20027;-63
2022/05/09 08:05:01;;;;;;;6.32;2.50;;;20.80;94.60;;;;;;21132140;28;20035;-63
2022/05/09 08:15:05;;;;;;;4.65;2.35;;;20.90;94.70;;;;;;21131129;27;20039;-63
2022/05/09 08:25:11;;;;;;;6.35;2.55;;;21.10;94.80;;;;;;21130527;27;20337;-54
2022/05/09 08:35:14;;;;;;;6.70;2.67;;;20.60;94.40;;;;;;21115116;27;20039;-61
2022/05/09 08:45:29;;;;;;;2.95;2.20;;;19.50;92.50;;;;;;21131788;28;20097;-61
2022/05/09 08:55:40;;;;;;;3.85;2.38;;;19.20;94.30;;;;;;21126458;28;20080;-55
2022/05/09 09:05:46;;;;;;;3.15;2.25;;;19.10;95.00;;;;;;21131302;28;20096;-62
2022/05/09 09:16:13;;;;;;;3.97;1.90;;;18.90;94.20;;;;;;21171381;27;20139;-63
2022/05/09 09:26:30;;;;;;;3.58;2.03;;;19.30;95.80;;;;;;21186012;28;20099;-63
2022/05/09 09:36:44;;;;;;;5.00;2.25;;;21.00;92.40;;;;;;21185731;28;20035;-64
2022/05/09 09:47:19;;;;;;;2.72;2.00;;;22.40;95.10;;;;;;21164814;28;20044;-64
2022/05/09 09:57:28;;;;;;;5.22;2.50;;;22.90;92.60;;;;;;21197877;28;20031;-65
2022/05/09 10:07:34;;;;;;;6.75;2.70;;;22.50;91.40;;;;;;21184070;28;20060;-63
2022/05/09 10:17:36;;;;;;;7.07;2.42;;;21.20;90.80;;;;;;21141490;28;20047;-65
2022/05/09 10:27:40;;;;;;;5.85;2.55;;;19.80;93.70;;;;;;21177716;27;20035;-65
2022/05/09 10:38:02;;;;;;;5.70;2.90;;;21.30;95.50;;;;;;21164865;27;20035;-64
2022/05/09 10:48:34;;;;;;;4.60;2.67;;;22.60;91.60;;;;;;21179647;27;20080;-64
2022/05/09 10:58:57;;;;;;;4.68;3.05;;;21.00;92.10;;;;;;21151061;27;20100;-63
2022/05/09 11:09:20;;;;;;;7.00;3.60;;;18.90;94.00;;;;;;21168676;27;20163;-63
2022/05/09 11:19:31;;;;;;;6.63;3.00;;;18.70;96.00;;;;;;21148939;27;20484;-53
2022/05/09 11:29:48;;;;;;;5.53;3.30;;;18.40;96.70;;;;;;21205396;27;20484;-61
2022/05/09 11:40:14;;;;;;;6.18;3.95;;;17.30;97.80;;;;;;21168602;27;20554;-61
2022/05/09 11:50:28;;;;;;;6.63;3.75;;;16.70;99.90;;;;;;21169554;27;20048;-52
2022/05/09 12:00:33;;;;;;;7.45;4.43;;;16.40;99.90;;;;;;21164030;27;20028;-52
2022/05/09 12:10:38;;;;;;;5.90;4.25;;;15.80;99.90;;;;;;21166091;27;20035;-61
2022/05/09 12:20:46;;;;;;;5.47;3.85;;;15.00;99.90;;;;;;21181021;27;20035;-60
2022/05/09 12:30:53;;;;;;;8.90;4.20;;;14.40;99.90;;;;;;21154770;27;20108;-60
2022/05/09 12:41:13;;;;;;;7.07;3.75;;;14.10;99.90;;;;;;21186624;27;20116;-51
2022/05/09 12:51:19;;;;;;;5.78;3.50;;;13.90;99.90;;;;;;21194190;27;20717;-61
2022/05/09 13:01:25;;;;;;;5.63;3.67;;;14.50;99.90;;;;;;21162800;27;20073;-60
2022/05/09 13:11:32;;;;;;;6.78;2.67;;;14.70;99.90;;;;;;21155967;27;20483;-61
2022/05/09 13:21:39;;;;;;;4.45;2.90;;;15.20;99.90;;;;;;21177140;28;20040;-55
2022/05/09 13:31:46;;;;;;;4.88;2.40;;;16.70;99.90;;;;;;21178153;28;20091;-63
2022/05/09 13:41:49;;;;;;;6.57;2.42;;;19.60;99.70;;;;;;21131180;28;20128;-62
2022/05/09 13:51:59;;;;;;;5.05;3.20;;;18.90;99.90;;;;;;21204990;28;20480;-62
2022/05/09 14:02:02;;;;;;;;;;;18.50;99.80;;;;;;21213375;27;20027;-54
2022/05/09 14:12:05;;;;;;;5.63;2.80;;;18.60;99.90;;;;;;21226682;27;19956;-67
2022/05/09 14:22:13;;;;;;;5.03;3.25;;;19.00;99.90;;;;;;21167953;27;20065;-67
2022/05/09 14:32:36;;;;;;;7.07;3.33;;;19.50;98.40;;;;;;21164137;27;20053;-63
2022/05/09 14:42:57;;;;;;;6.93;3.33;;;20.80;99.10;;;;;;21173409;27;20096;-63
2022/05/09 14:53:00;;;;;;;4.25;2.75;;;20.50;94.60;;;;;;21171072;27;20035;-62
2022/05/09 15:03:06;;;;;;;7.32;3.63;;;17.50;96.40;;;;;;21187200;27;20392;-62
2022/05/09 15:13:12;;;;;;;5.95;3.00;;;15.80;99.90;;;;;;21180983;27;20044;-51
2022/05/09 15:23:16;;;;;;;6.57;2.70;;;15.50;99.90;;;;;;21173243;27;20581;-50
2022/05/09 15:33:21;;;;;;;6.85;2.65;;;15.60;99.90;;;;;;21194070;27;20167;-62
2022/05/09 15:43:26;;;;;;;5.10;2.45;;;16.20;99.90;;;;;;21156797;27;20127;-62
2022/05/09 15:53:29;;;;;;;8.18;3.00;;;18.20;99.90;;;;;;21202974;27;20036;-62
2022/05/09 16:03:34;;;;;;;3.92;1.63;;;19.80;93.50;;;;;;21163567;27;20500;-62
2022/05/09 16:13:38;;;;;;;5.35;2.08;;;18.70;93.40;;;;;;21195473;27;20035;-62
2022/05/09 16:23:42;;;;;;;6.35;2.40;;;17.90;94.10;;;;;;21156070;27;20039;-50
2022/05/09 16:33:44;;;;;;;5.85;2.33;;;16.90;93.40;;;;;;21172844;27;20062;-51
2022/05/09 16:43:48;;;;;;;5.35;2.65;;;15.70;95.40;;;;;;21168110;27;20051;-61
2022/05/09 16:53:51;;;;;;;9.38;2.95;;;15.00;97.40;;;;;;21163740;27;20396;-62
2022/05/09 17:03:54;;;;;;;6.90;3.20;;;14.30;99.90;;;;;;21178138;27;20346;-60
2022/05/09 17:14:00;;;;;;;6.57;3.17;;;13.60;99.90;;;;;;21167544;27;20036;-61
2022/05/09 17:24:02;;;;;;;6.13;3.88;;;12.90;99.90;;;;;;21159359;28;20706;-60
2022/05/09 17:34:08;;;;;;;7.10;3.33;;;12.10;99.90;;;;;;21161534;28;20100;-49
2022/05/09 17:44:13;;;;;;;8.25;3.85;;;11.50;99.90;;;;;;21185082;27;20043;-50
2022/05/09 17:54:17;;;;;;;8.30;3.90;;;11.00;99.90;;;;;;21181419;27;20039;-51
2022/05/09 18:04:24;;;;;;;7.25;3.63;;;10.70;99.90;;;;;;21177800;27;20031;-60
2022/05/09 18:14:33;;;;;;;6.25;3.55;;;10.40;99.90;;;;;;21193435;27;20115;-48
2022/05/09 18:24:39;;;;;;;6.63;4.00;;;10.10;99.90;;;;;;21171132;27;20040;-60
2022/05/09 18:34:42;;;;;;;5.82;3.08;;;9.90;99.90;;;;;;21167036;27;20031;-60
2022/05/09 18:44:45;;;;;;;7.25;3.88;;;9.70;99.90;;;;;;21175914;27;20065;-51
2022/05/09 18:54:48;;;;;;;10.95;4.30;;;9.50;99.90;;;;;;21174945;27;20069;-48
2022/05/09 19:04:54;;;;;;;8.02;4.40;;;9.20;99.90;;;;;;21185841;27;20084;-49
2022/05/09 19:14:59;;;;;;;7.18;4.45;;;8.80;99.90;;;;;;21206413;27;20061;-50
2022/05/09 19:25:05;;;;;;;8.98;5.07;;;8.70;99.90;;;;;;21202192;27;20031;-48
2022/05/09 19:35:19;;;;;;;7.32;5.28;;;8.80;99.90;;;;;;21184982;27;20108;-51
2022/05/09 19:45:28;;;;;;;12.93;6.10;;;8.80;99.90;;;;;;21165036;27;20100;-49
2022/05/09 19:55:33;;;;;;;14.23;6.20;;;8.70;99.90;;;;;;21174549;27;20417;-48
2022/05/09 20:05:35;;;;;;;8.75;5.20;;;8.80;99.90;;;;;;21187228;27;20031;-48
2022/05/09 20:15:38;;;;;;;8.32;6.10;;;9.00;99.90;;;;;;21182018;27;20104;-48
2022/05/09 20:36:10;;;;;;;8.95;5.28;;;9.10;99.90;;;;;;21153683;27;20539;-49
2022/05/09 20:46:12;;;;;;;9.27;6.07;;;9.10;99.90;;;;;;21151850;27;20036;-49
2022/05/09 20:56:19;;;;;;;10.93;6.75;;;9.00;99.90;;;;;;21184517;27;20494;-47
2022/05/09 21:06:22;;;;;;;10.18;6.45;;;8.70;99.90;;;;;;21174106;27;20040;-48
2022/05/09 21:16:24;;;;;;;12.45;7.25;;;8.50;99.90;;;;;;21164491;27;20036;-59
2022/05/09 21:26:27;;;;;;;14.23;6.90;;;8.10;99.90;;;;;;21179564;28;20035;-60
2022/05/09 21:36:42;;;;;;;12.80;5.63;;;8.10;99.90;;;;;;21173731;28;20039;-52
2022/05/09 21:46:45;;;;;;;11.77;5.03;;;7.90;99.90;;;;;;21182822;28;20450;-49
2022/05/09 21:56:50;;;;;;;15.20;5.28;;;8.00;99.90;;;;;;21174162;28;20069;-52
2022/05/09 22:06:55;;;;;;;10.55;4.88;;;7.80;99.90;;;;;;21157012;28;20031;-48
2022/05/09 22:16:59;;;;;;;7.97;4.68;;;7.70;99.90;;;;;;21147592;28;20184;-51
2022/05/09 22:27:04;;;;;;;14.05;3.50;;;7.60;99.90;;;;;;21141086;27;20076;-59
2022/05/09 22:37:32;;;;;;;7.75;3.50;;;7.40;99.90;;;;;;21170763;27;20035;-48
2022/05/09 22:47:35;;;;;;;6.97;4.13;;;7.20;99.90;;;;;;21165233;27;20047;-49
2022/05/09 22:57:51;;;;;;;11.45;3.88;;;7.40;99.90;;;;;;21169926;27;20031;-51
2022/05/09 23:07:54;;;;;;;6.30;3.55;;;7.60;99.90;;;;;;21171727;27;20039;-59
2022/05/09 23:17:58;;;;;;;6.35;3.35;;;7.60;99.90;;;;;;21175516;27;20045;-59
2022/05/09 23:28:00;;;;;;;12.73;3.80;;;7.80;99.90;;;;;;21182181;27;20466;-51
2022/05/09 23:38:03;;;;;;;8.32;3.17;;;7.70;99.90;;;;;;21182178;27;20035;-48
2022/05/09 23:48:05;;;;;;;12.60;4.30;;;7.90;99.90;;;;;;21066796;28;20052;-59
2022/05/09 23:58:09;;;;;;;8.10;3.95;;;7.60;99.90;;;;;;21065887;28;20044;-51
